createdAt,value
2019-01-23T00:00:09.772Z,991.54
2019-01-23T00:01:09.757Z,991.53
2019-01-23T00:02:09.735Z,991.53
2019-01-23T00:03:09.730Z,991.49
2019-01-23T00:04:09.713Z,991.51
2019-01-23T00:05:09.699Z,991.49
2019-01-23T00:06:09.687Z,991.46
2019-01-23T00:07:09.673Z,991.46
2019-01-23T00:08:09.655Z,991.45
2019-01-23T00:09:09.651Z,991.41
2019-01-23T00:10:09.630Z,991.39
2019-01-23T00:11:09.623Z,991.40
2019-01-23T00:12:09.604Z,991.39
2019-01-23T00:13:09.586Z,991.35
2019-01-23T00:14:09.576Z,991.34
2019-01-23T00:15:09.559Z,991.30
2019-01-23T00:16:09.546Z,991.30
2019-01-23T00:17:09.534Z,991.29
2019-01-23T00:18:09.518Z,991.24
2019-01-23T00:19:09.509Z,991.23
2019-01-23T00:20:09.494Z,991.23
2019-01-23T00:21:09.482Z,991.19
2019-01-23T00:22:09.468Z,991.21
2019-01-23T00:23:09.451Z,991.17
2019-01-23T00:24:09.439Z,991.17
2019-01-23T00:25:09.424Z,991.17
2019-01-23T00:26:09.416Z,991.19
2019-01-23T00:27:09.397Z,991.20
2019-01-23T00:28:09.379Z,991.20
2019-01-23T00:29:09.366Z,991.20
2019-01-23T00:30:09.369Z,991.19
2019-01-23T00:31:09.340Z,991.17
2019-01-23T00:32:09.336Z,991.18
2019-01-23T00:33:09.315Z,991.14
2019-01-23T00:34:09.304Z,991.14
2019-01-23T00:35:09.281Z,991.13
2019-01-23T00:36:09.273Z,991.15
2019-01-23T00:37:09.259Z,991.15
2019-01-23T00:38:09.246Z,991.15
2019-01-23T00:39:09.231Z,991.15
2019-01-23T00:40:09.216Z,991.10
2019-01-23T00:41:09.205Z,991.15
2019-01-23T00:42:09.192Z,991.12
2019-01-23T00:43:09.173Z,991.12
2019-01-23T00:44:09.161Z,991.14
2019-01-23T00:45:09.148Z,991.14
2019-01-23T00:46:09.135Z,991.12
2019-01-23T00:47:09.120Z,991.07
2019-01-23T00:48:09.102Z,991.12
2019-01-23T00:49:09.093Z,991.08
2019-01-23T00:50:09.077Z,991.11
2019-01-23T00:51:09.064Z,991.03
2019-01-23T00:52:09.048Z,991.03
2019-01-23T00:53:09.034Z,991.03
2019-01-23T00:54:09.028Z,991.02
2019-01-23T00:55:09.012Z,991.02
2019-01-23T00:56:08.996Z,990.99
2019-01-23T00:57:08.977Z,990.96
2019-01-23T00:58:08.966Z,990.98
2019-01-23T00:59:08.955Z,990.94
2019-01-23T01:00:08.941Z,990.94
2019-01-23T01:01:08.927Z,990.92
2019-01-23T01:02:08.913Z,990.89
2019-01-23T01:03:08.896Z,990.91
2019-01-23T01:04:08.881Z,990.87
2019-01-23T01:05:08.869Z,990.87
2019-01-23T01:06:08.859Z,990.87
2019-01-23T01:07:08.844Z,990.85
2019-01-23T01:08:08.824Z,990.89
2019-01-23T01:09:08.815Z,990.88
2019-01-23T01:10:08.803Z,990.87
2019-01-23T01:11:08.788Z,990.85
2019-01-23T01:12:08.813Z,990.81
2019-01-23T01:13:08.760Z,990.82
2019-01-23T01:14:08.814Z,990.78
2019-01-23T01:15:13.329Z,990.75
2019-01-23T01:16:08.719Z,990.74
2019-01-23T01:17:08.704Z,990.72
2019-01-23T01:18:08.688Z,990.74
2019-01-23T01:19:08.683Z,990.77
2019-01-23T01:20:08.664Z,990.76
2019-01-23T01:21:08.651Z,990.76
2019-01-23T01:22:08.640Z,990.68
2019-01-23T01:23:08.617Z,990.74
2019-01-23T01:24:08.606Z,990.73
2019-01-23T01:25:08.594Z,990.70
2019-01-23T01:26:08.578Z,990.68
2019-01-23T01:27:08.603Z,990.65
2019-01-23T01:28:08.551Z,990.67
2019-01-23T01:29:08.538Z,990.64
2019-01-23T01:30:08.523Z,990.66
2019-01-23T01:31:08.512Z,990.63
2019-01-23T01:32:08.493Z,990.62
2019-01-23T01:33:08.479Z,990.64
2019-01-23T01:34:08.472Z,990.63
2019-01-23T01:35:08.459Z,990.64
2019-01-23T01:36:08.441Z,990.59
2019-01-23T01:37:08.431Z,990.59
2019-01-23T01:38:08.417Z,990.60
2019-01-23T01:39:08.400Z,990.57
2019-01-23T01:40:12.367Z,990.59
2019-01-23T01:41:08.373Z,990.56
2019-01-23T01:42:08.359Z,990.54
2019-01-23T01:43:08.342Z,990.50
2019-01-23T01:44:08.332Z,990.48
2019-01-23T01:45:08.316Z,990.49
2019-01-23T01:46:08.311Z,990.52
2019-01-23T01:47:08.290Z,990.48
2019-01-23T01:48:08.277Z,990.52
2019-01-23T01:49:08.266Z,990.46
2019-01-23T01:50:08.251Z,990.44
2019-01-23T01:51:08.235Z,990.41
2019-01-23T01:52:08.220Z,990.41
2019-01-23T01:53:08.204Z,990.38
2019-01-23T01:54:08.195Z,990.41
2019-01-23T01:55:08.178Z,990.43
2019-01-23T01:56:08.165Z,990.39
2019-01-23T01:57:08.152Z,990.44
2019-01-23T01:58:10.171Z,990.43
2019-01-23T01:59:08.124Z,990.40
2019-01-23T02:00:08.107Z,990.41
2019-01-23T02:01:08.097Z,990.44
2019-01-23T02:02:08.084Z,990.39
2019-01-23T02:03:08.072Z,990.36
2019-01-23T02:04:08.056Z,990.37
2019-01-23T02:05:08.047Z,990.29
2019-01-23T02:06:08.027Z,990.33
2019-01-23T02:07:08.011Z,990.29
2019-01-23T02:08:07.994Z,990.29
2019-01-23T02:09:07.990Z,990.33
2019-01-23T02:10:07.975Z,990.28
2019-01-23T02:11:07.960Z,990.27
2019-01-23T02:12:07.944Z,990.23
2019-01-23T02:13:07.930Z,990.27
2019-01-23T02:14:07.918Z,990.28
2019-01-23T02:15:07.907Z,990.23
2019-01-23T02:16:07.890Z,990.22
2019-01-23T02:17:07.875Z,990.22
2019-01-23T02:18:07.865Z,990.21
2019-01-23T02:19:07.848Z,990.21
2019-01-23T02:20:07.845Z,990.16
2019-01-23T02:21:07.818Z,990.18
2019-01-23T02:22:07.807Z,990.15
2019-01-23T02:23:07.792Z,990.18
2019-01-23T02:24:07.791Z,990.13
2019-01-23T02:25:07.764Z,990.15
2019-01-23T02:26:07.751Z,990.16
2019-01-23T02:27:07.743Z,990.11
2019-01-23T02:28:07.728Z,990.07
2019-01-23T02:29:09.632Z,990.04
2019-01-23T02:30:07.698Z,990.04
2019-01-23T02:31:07.681Z,990.04
2019-01-23T02:32:07.668Z,990.06
2019-01-23T02:33:07.655Z,990.01
2019-01-23T02:34:07.641Z,989.98
2019-01-23T02:35:07.656Z,989.97
2019-01-23T02:36:07.613Z,989.99
2019-01-23T02:37:07.604Z,989.97
2019-01-23T02:38:07.584Z,989.95
2019-01-23T02:39:07.573Z,989.95
2019-01-23T02:40:07.553Z,989.93
2019-01-23T02:41:07.550Z,989.90
2019-01-23T02:42:07.532Z,989.92
2019-01-23T02:43:07.516Z,989.94
2019-01-23T02:44:07.502Z,989.92
2019-01-23T02:45:07.489Z,989.91
2019-01-23T02:46:07.473Z,989.89
2019-01-23T02:47:07.460Z,989.85
2019-01-23T02:48:07.445Z,989.81
2019-01-23T02:49:07.430Z,989.80
2019-01-23T02:50:07.424Z,989.75
2019-01-23T02:51:07.405Z,989.73
2019-01-23T02:52:07.393Z,989.71
2019-01-23T02:53:07.382Z,989.71
2019-01-23T02:54:07.366Z,989.65
2019-01-23T02:55:07.350Z,989.64
2019-01-23T02:56:07.339Z,989.66
2019-01-23T02:57:07.324Z,989.63
2019-01-23T02:58:07.308Z,989.59
2019-01-23T02:59:07.296Z,989.62
2019-01-23T03:00:07.282Z,989.61
2019-01-23T03:01:07.270Z,989.59
2019-01-23T03:02:07.255Z,989.60
2019-01-23T03:03:07.243Z,989.58
2019-01-23T03:04:07.225Z,989.53
2019-01-23T03:05:07.216Z,989.52
2019-01-23T03:06:07.202Z,989.53
2019-01-23T03:07:07.187Z,989.54
2019-01-23T03:08:07.174Z,989.52
2019-01-23T03:09:07.160Z,989.49
2019-01-23T03:10:07.146Z,989.48
2019-01-23T03:11:07.131Z,989.49
2019-01-23T03:12:07.117Z,989.42
2019-01-23T03:13:07.100Z,989.44
2019-01-23T03:14:07.091Z,989.45
2019-01-23T03:15:07.072Z,989.47
2019-01-23T03:16:07.060Z,989.46
2019-01-23T03:17:07.050Z,989.44
2019-01-23T03:18:07.036Z,989.41
2019-01-23T03:19:07.021Z,989.36
2019-01-23T03:20:07.010Z,989.39
2019-01-23T03:21:06.995Z,989.37
2019-01-23T03:22:06.982Z,989.34
2019-01-23T03:23:06.968Z,989.31
2019-01-23T03:24:06.957Z,989.31
2019-01-23T03:25:06.944Z,989.32
2019-01-23T03:26:06.926Z,989.27
2019-01-23T03:27:06.913Z,989.30
2019-01-23T03:28:06.899Z,989.31
2019-01-23T03:29:06.886Z,989.30
2019-01-23T03:30:06.877Z,989.31
2019-01-23T03:31:06.858Z,989.23
2019-01-23T03:32:06.849Z,989.25
2019-01-23T03:33:06.829Z,989.26
2019-01-23T03:34:06.815Z,989.23
2019-01-23T03:35:06.798Z,989.24
2019-01-23T03:36:06.788Z,989.24
2019-01-23T03:37:06.774Z,989.24
2019-01-23T03:38:06.762Z,989.25
2019-01-23T03:39:06.747Z,989.19
2019-01-23T03:40:06.735Z,989.20
2019-01-23T03:41:06.719Z,989.17
2019-01-23T03:42:06.703Z,989.22
2019-01-23T03:43:06.695Z,989.20
2019-01-23T03:44:06.685Z,989.19
2019-01-23T03:45:06.672Z,989.19
2019-01-23T03:46:06.651Z,989.19
2019-01-23T03:47:06.640Z,989.20
2019-01-23T03:48:06.626Z,989.20
2019-01-23T03:49:06.612Z,989.17
2019-01-23T03:50:06.599Z,989.17
2019-01-23T03:51:06.581Z,989.18
2019-01-23T03:52:06.568Z,989.16
2019-01-23T03:53:06.556Z,989.12
2019-01-23T03:54:06.589Z,989.12
2019-01-23T03:55:06.527Z,989.15
2019-01-23T03:56:06.511Z,989.14
2019-01-23T03:57:06.500Z,989.10
2019-01-23T03:58:06.487Z,989.09
2019-01-23T03:59:06.471Z,989.12
2019-01-23T04:00:06.458Z,989.12
2019-01-23T04:01:06.450Z,989.10
2019-01-23T04:02:06.438Z,989.12
2019-01-23T04:03:06.420Z,989.07
2019-01-23T04:04:06.407Z,989.09
2019-01-23T04:05:06.396Z,989.08
2019-01-23T04:06:06.377Z,989.10
2019-01-23T04:07:06.363Z,989.09
2019-01-23T04:08:06.357Z,989.10
2019-01-23T04:09:06.336Z,989.07
2019-01-23T04:10:06.318Z,989.07
2019-01-23T04:11:06.309Z,989.07
2019-01-23T04:12:06.299Z,989.06
2019-01-23T04:13:06.284Z,989.05
2019-01-23T04:14:06.274Z,989.04
2019-01-23T04:15:06.256Z,988.99
2019-01-23T04:16:06.236Z,989.01
2019-01-23T04:17:06.226Z,988.99
2019-01-23T04:18:06.219Z,988.99
2019-01-23T04:19:06.199Z,988.98
2019-01-23T04:20:06.186Z,988.97
2019-01-23T04:21:06.168Z,988.92
2019-01-23T04:22:06.202Z,988.96
2019-01-23T04:23:06.144Z,988.95
2019-01-23T04:24:06.135Z,988.94
2019-01-23T04:25:06.118Z,988.96
2019-01-23T04:26:06.104Z,988.94
2019-01-23T04:27:06.090Z,988.90
2019-01-23T04:28:06.078Z,988.93
2019-01-23T04:29:06.058Z,988.95
2019-01-23T04:30:06.049Z,988.89
2019-01-23T04:31:06.035Z,988.91
2019-01-23T04:32:06.018Z,988.92
2019-01-23T04:33:06.008Z,988.86
2019-01-23T04:34:05.997Z,988.84
2019-01-23T04:35:05.982Z,988.86
2019-01-23T04:36:05.967Z,988.82
2019-01-23T04:37:05.955Z,988.80
2019-01-23T04:38:05.940Z,988.78
2019-01-23T04:39:05.928Z,988.80
2019-01-23T04:40:05.911Z,988.76
2019-01-23T04:41:05.896Z,988.75
2019-01-23T04:42:05.880Z,988.75
2019-01-23T04:43:05.871Z,988.76
2019-01-23T04:44:05.861Z,988.78
2019-01-23T04:45:05.846Z,988.76
2019-01-23T04:46:05.830Z,988.80
2019-01-23T04:47:05.815Z,988.76
2019-01-23T04:48:05.804Z,988.76
2019-01-23T04:49:05.785Z,988.76
2019-01-23T04:50:05.775Z,988.75
2019-01-23T04:51:05.762Z,988.71
2019-01-23T04:52:05.751Z,988.71
2019-01-23T04:53:05.737Z,988.70
2019-01-23T04:54:05.723Z,988.67
2019-01-23T04:55:05.705Z,988.66
2019-01-23T04:56:05.691Z,988.64
2019-01-23T04:57:05.681Z,988.67
2019-01-23T04:58:05.670Z,988.63
2019-01-23T04:59:05.651Z,988.60
2019-01-23T05:00:05.636Z,988.58
2019-01-23T05:01:05.630Z,988.58
2019-01-23T05:02:05.613Z,988.56
2019-01-23T05:03:05.602Z,988.59
2019-01-23T05:04:05.587Z,988.57
2019-01-23T05:05:05.570Z,988.59
2019-01-23T05:06:05.555Z,988.59
2019-01-23T05:07:05.544Z,988.61
2019-01-23T05:08:05.530Z,988.56
2019-01-23T05:09:05.510Z,988.58
2019-01-23T05:10:05.501Z,988.62
2019-01-23T05:11:05.485Z,988.57
2019-01-23T05:12:05.496Z,988.57
2019-01-23T05:13:05.460Z,988.52
2019-01-23T05:14:05.450Z,988.53
2019-01-23T05:15:05.433Z,988.53
2019-01-23T05:16:05.416Z,988.52
2019-01-23T05:17:05.408Z,988.48
2019-01-23T05:18:05.391Z,988.51
2019-01-23T05:19:05.382Z,988.47
2019-01-23T05:20:05.365Z,988.46
2019-01-23T05:21:05.349Z,988.47
2019-01-23T05:22:05.329Z,988.48
2019-01-23T05:23:05.320Z,988.45
2019-01-23T05:24:05.311Z,988.48
2019-01-23T05:25:05.292Z,988.48
2019-01-23T05:26:05.282Z,988.44
2019-01-23T05:27:05.263Z,988.46
2019-01-23T05:28:05.254Z,988.47
2019-01-23T05:29:05.236Z,988.48
2019-01-23T05:30:05.222Z,988.46
2019-01-23T05:31:05.211Z,988.42
2019-01-23T05:32:05.199Z,988.44
2019-01-23T05:33:05.186Z,988.43
2019-01-23T05:34:05.170Z,988.45
2019-01-23T05:35:05.161Z,988.45
2019-01-23T05:36:05.145Z,988.40
2019-01-23T05:37:05.142Z,988.43
2019-01-23T05:38:05.122Z,988.44
2019-01-23T05:39:05.101Z,988.38
2019-01-23T05:40:05.085Z,988.45
2019-01-23T05:41:05.078Z,988.40
2019-01-23T05:42:05.059Z,988.38
2019-01-23T05:43:05.041Z,988.39
2019-01-23T05:44:05.032Z,988.39
2019-01-23T05:45:05.017Z,988.38
2019-01-23T05:46:05.004Z,988.36
2019-01-23T05:47:04.993Z,988.37
2019-01-23T05:48:04.978Z,988.36
2019-01-23T05:49:04.964Z,988.33
2019-01-23T05:50:04.949Z,988.32
2019-01-23T05:51:04.937Z,988.33
2019-01-23T05:52:04.920Z,988.28
2019-01-23T05:53:04.909Z,988.27
2019-01-23T05:54:04.907Z,988.30
2019-01-23T05:55:04.881Z,988.30
2019-01-23T05:56:04.870Z,988.29
2019-01-23T05:57:04.856Z,988.30
2019-01-23T05:58:04.842Z,988.30
2019-01-23T05:59:04.826Z,988.28
2019-01-23T06:00:04.815Z,988.28
2019-01-23T06:01:04.800Z,988.32
2019-01-23T06:02:04.785Z,988.25
2019-01-23T06:03:04.771Z,988.25
2019-01-23T06:04:04.758Z,988.24
2019-01-23T06:05:04.742Z,988.27
2019-01-23T06:06:04.732Z,988.26
2019-01-23T06:07:04.722Z,988.29
2019-01-23T06:08:04.701Z,988.27
2019-01-23T06:09:04.690Z,988.30
2019-01-23T06:10:04.672Z,988.29
2019-01-23T06:11:04.665Z,988.24
2019-01-23T06:12:04.647Z,988.24
2019-01-23T06:13:04.635Z,988.25
2019-01-23T06:14:04.617Z,988.25
2019-01-23T06:15:04.611Z,988.28
2019-01-23T06:16:04.591Z,988.26
2019-01-23T06:17:04.579Z,988.27
2019-01-23T06:18:04.564Z,988.25
2019-01-23T06:19:04.555Z,988.23
2019-01-23T06:20:04.546Z,988.21
2019-01-23T06:21:04.524Z,988.20
2019-01-23T06:22:04.511Z,988.23
2019-01-23T06:23:04.494Z,988.16
2019-01-23T06:24:04.480Z,988.25
2019-01-23T06:25:04.472Z,988.22
2019-01-23T06:26:04.457Z,988.23
2019-01-23T06:27:04.441Z,988.21
2019-01-23T06:28:04.438Z,988.21
2019-01-23T06:29:04.410Z,988.23
2019-01-23T06:30:10.214Z,988.21
2019-01-23T06:31:04.388Z,988.27
2019-01-23T06:32:04.374Z,988.24
2019-01-23T06:33:04.358Z,988.23
2019-01-23T06:34:04.342Z,988.23
2019-01-23T06:35:04.328Z,988.23
2019-01-23T06:36:04.310Z,988.24
2019-01-23T06:37:04.305Z,988.24
2019-01-23T06:38:04.291Z,988.25
2019-01-23T06:39:04.273Z,988.25
2019-01-23T06:40:04.258Z,988.26
2019-01-23T06:41:04.248Z,988.22
2019-01-23T06:42:04.232Z,988.27
2019-01-23T06:43:04.218Z,988.25
2019-01-23T06:44:04.202Z,988.25
2019-01-23T06:45:04.193Z,988.27
2019-01-23T06:46:04.178Z,988.24
2019-01-23T06:47:04.164Z,988.23
2019-01-23T06:48:04.149Z,988.22
2019-01-23T06:49:04.134Z,988.28
2019-01-23T06:50:04.124Z,988.24
2019-01-23T06:51:04.109Z,988.23
2019-01-23T06:52:04.095Z,988.25
2019-01-23T06:53:04.084Z,988.27
2019-01-23T06:54:04.074Z,988.27
2019-01-23T06:55:04.053Z,988.26
2019-01-23T06:56:04.036Z,988.24
2019-01-23T06:57:04.025Z,988.24
2019-01-23T06:58:04.013Z,988.23
2019-01-23T06:59:03.999Z,988.28
2019-01-23T07:00:03.993Z,988.24
2019-01-23T07:01:03.970Z,988.23
2019-01-23T07:02:03.950Z,988.24
2019-01-23T07:03:03.943Z,988.24
2019-01-23T07:04:03.932Z,988.25
2019-01-23T07:05:03.916Z,988.22
2019-01-23T07:06:03.904Z,988.24
2019-01-23T07:07:03.887Z,988.21
2019-01-23T07:08:03.878Z,988.24
2019-01-23T07:09:03.857Z,988.23
2019-01-23T07:10:03.849Z,988.28
2019-01-23T07:11:03.840Z,988.27
2019-01-23T07:12:03.820Z,988.26
2019-01-23T07:13:03.807Z,988.23
2019-01-23T07:14:03.786Z,988.21
2019-01-23T07:15:03.787Z,988.23
2019-01-23T07:16:03.761Z,988.23
2019-01-23T07:17:03.751Z,988.24
2019-01-23T07:18:03.737Z,988.24
2019-01-23T07:19:03.722Z,988.23
2019-01-23T07:20:03.713Z,988.23
2019-01-23T07:21:03.711Z,988.21
2019-01-23T07:22:03.685Z,988.22
2019-01-23T07:23:03.666Z,988.21
2019-01-23T07:24:03.653Z,988.21
2019-01-23T07:25:03.639Z,988.23
2019-01-23T07:26:03.626Z,988.21
2019-01-23T07:27:03.612Z,988.23
2019-01-23T07:28:03.598Z,988.18
2019-01-23T07:29:03.583Z,988.25
2019-01-23T07:30:03.572Z,988.20
2019-01-23T07:31:03.555Z,988.22
2019-01-23T07:32:03.553Z,988.19
2019-01-23T07:33:03.529Z,988.18
2019-01-23T07:34:03.517Z,988.21
2019-01-23T07:35:03.498Z,988.18
2019-01-23T07:36:03.493Z,988.20
2019-01-23T07:37:03.478Z,988.17
2019-01-23T07:38:03.459Z,988.18
2019-01-23T07:39:03.446Z,988.15
2019-01-23T07:40:03.434Z,988.15
2019-01-23T07:41:03.451Z,988.16
2019-01-23T07:42:03.399Z,988.12
2019-01-23T07:43:03.392Z,988.14
2019-01-23T07:44:03.383Z,988.18
2019-01-23T07:45:03.365Z,988.16
2019-01-23T07:46:03.350Z,988.18
2019-01-23T07:47:03.332Z,988.18
2019-01-23T07:48:03.326Z,988.16
2019-01-23T07:49:03.311Z,988.16
2019-01-23T07:50:03.297Z,988.17
2019-01-23T07:51:03.280Z,988.16
2019-01-23T07:52:03.268Z,988.18
2019-01-23T07:53:03.253Z,988.17
2019-01-23T07:54:03.235Z,988.19
2019-01-23T07:55:03.222Z,988.17
2019-01-23T07:56:03.214Z,988.13
2019-01-23T07:57:03.196Z,988.13
2019-01-23T07:58:03.184Z,988.15
2019-01-23T07:59:03.170Z,988.12
2019-01-23T08:00:03.156Z,988.13
2019-01-23T08:01:03.143Z,988.14
2019-01-23T08:02:03.129Z,988.12
2019-01-23T08:03:03.113Z,988.18
2019-01-23T08:04:03.100Z,988.14
2019-01-23T08:05:03.084Z,988.17
2019-01-23T08:06:03.073Z,988.16
2019-01-23T08:07:03.061Z,988.16
2019-01-23T08:08:10.188Z,988.14
2019-01-23T08:10:06.996Z,988.21
2019-01-23T08:11:06.955Z,988.19
2019-01-23T08:13:10.999Z,988.22
2019-01-23T08:14:10.878Z,988.19
2019-01-23T08:16:14.810Z,988.15
2019-01-23T08:17:14.795Z,988.14
2019-01-23T08:19:18.752Z,988.21
2019-01-23T08:20:18.714Z,988.20
2019-01-23T08:22:22.681Z,988.22
2019-01-23T08:23:22.629Z,988.19
2019-01-23T08:25:26.559Z,988.24
2019-01-23T08:26:26.543Z,988.23
2019-01-23T08:28:19.430Z,988.23
2019-01-23T08:29:19.393Z,988.21
2019-01-23T08:31:23.321Z,988.19
2019-01-23T08:32:23.301Z,988.21
2019-01-23T08:34:27.258Z,988.21
2019-01-23T08:35:27.221Z,988.21
2019-01-23T08:37:31.155Z,988.23
2019-01-23T08:38:31.146Z,988.26
2019-01-23T08:40:35.092Z,988.30
2019-01-23T08:41:35.052Z,988.22
2019-01-23T08:43:39.022Z,988.24
2019-01-23T08:44:38.986Z,988.25
2019-01-23T08:46:31.867Z,988.23
2019-01-23T08:47:31.848Z,988.21
2019-01-23T08:49:35.801Z,988.28
2019-01-23T08:50:35.760Z,988.25
2019-01-23T08:52:39.696Z,988.28
2019-01-23T08:53:39.689Z,988.29
2019-01-23T08:55:43.641Z,988.29
2019-01-23T08:56:43.596Z,988.27
2019-01-23T08:58:36.480Z,988.30
2019-01-23T08:59:36.442Z,988.31
2019-01-23T09:01:40.372Z,988.31
2019-01-23T09:02:40.361Z,988.31
2019-01-23T09:04:44.310Z,988.34
2019-01-23T09:05:44.269Z,988.35
2019-01-23T09:07:48.204Z,988.37
2019-01-23T09:08:48.193Z,988.35
2019-01-23T09:10:52.154Z,988.36
2019-01-23T09:11:52.112Z,988.37
2019-01-23T09:13:56.073Z,988.35
2019-01-23T09:14:56.038Z,988.34
2019-01-23T09:16:59.968Z,988.40
2019-01-23T09:17:59.953Z,988.36
2019-01-23T09:20:03.909Z,988.32
2019-01-23T09:21:03.870Z,988.33
2019-01-23T09:23:07.808Z,988.36
2019-01-23T09:24:07.783Z,988.43
2019-01-23T09:26:11.740Z,988.39
2019-01-23T09:27:11.698Z,988.40
2019-01-23T09:29:15.658Z,988.41
2019-01-23T09:30:15.622Z,988.41
2019-01-23T09:32:19.554Z,988.42
2019-01-23T09:33:19.536Z,988.44
2019-01-23T09:35:23.495Z,988.41
2019-01-23T09:36:23.461Z,988.42
2019-01-23T09:38:16.317Z,988.40
2019-01-23T09:39:16.302Z,988.40
2019-01-23T09:41:20.266Z,988.45
2019-01-23T09:42:20.228Z,988.45
2019-01-23T09:44:24.180Z,988.43
2019-01-23T09:45:24.145Z,988.48
2019-01-23T09:47:28.070Z,988.48
2019-01-23T09:48:28.055Z,988.48
2019-01-23T09:50:32.005Z,988.51
2019-01-23T09:51:31.970Z,988.54
2019-01-23T09:53:35.910Z,988.58
2019-01-23T09:54:35.884Z,988.52
2019-01-23T09:56:39.852Z,988.57
2019-01-23T09:57:39.809Z,988.54
2019-01-23T09:59:43.773Z,988.59
2019-01-23T10:00:43.741Z,988.62
2019-01-23T10:02:47.672Z,988.66
2019-01-23T10:03:47.653Z,988.59
2019-01-23T10:05:51.610Z,988.62
2019-01-23T10:06:51.569Z,988.63
2019-01-23T10:08:55.506Z,988.62
2019-01-23T10:09:55.488Z,988.62
2019-01-23T10:11:59.442Z,988.61
2019-01-23T10:12:59.407Z,988.62
2019-01-23T10:15:03.368Z,988.57
2019-01-23T10:16:03.331Z,988.57
2019-01-23T10:17:56.198Z,988.54
2019-01-23T10:18:56.347Z,988.60
2019-01-23T10:21:00.136Z,988.63
2019-01-23T10:22:00.091Z,988.58
2019-01-23T10:24:04.202Z,988.51
2019-01-23T10:25:04.013Z,988.57
2019-01-23T10:27:07.966Z,988.60
2019-01-23T10:28:07.925Z,988.60
2019-01-23T10:30:11.859Z,988.60
2019-01-23T10:31:11.845Z,988.61
2019-01-23T10:33:15.801Z,988.59
2019-01-23T10:34:15.762Z,988.60
2019-01-23T10:36:19.719Z,988.58
2019-01-23T10:37:19.766Z,988.66
2019-01-23T10:39:23.616Z,988.61
2019-01-23T10:40:23.605Z,988.58
2019-01-23T10:42:27.554Z,988.56
2019-01-23T10:43:27.515Z,988.56
2019-01-23T10:45:31.453Z,988.54
2019-01-23T10:46:31.434Z,988.58
2019-01-23T10:48:24.323Z,988.53
2019-01-23T10:49:24.286Z,988.51
2019-01-23T10:50:24.288Z,988.52
2019-01-23T10:51:24.262Z,988.54
2019-01-23T10:52:24.253Z,988.52
2019-01-23T10:53:24.233Z,988.56
2019-01-23T10:54:24.222Z,988.49
2019-01-23T10:55:24.216Z,988.47
2019-01-23T10:56:24.196Z,988.44
2019-01-23T10:57:24.185Z,988.49
2019-01-23T10:58:24.171Z,988.48
2019-01-23T10:59:24.156Z,988.51
2019-01-23T11:00:24.151Z,988.49
2019-01-23T11:01:24.129Z,988.54
2019-01-23T11:02:24.116Z,988.53
2019-01-23T11:03:24.105Z,988.51
2019-01-23T11:04:24.095Z,988.50
2019-01-23T11:05:24.078Z,988.45
2019-01-23T11:06:24.068Z,988.47
2019-01-23T11:07:24.051Z,988.42
2019-01-23T11:08:24.038Z,988.44
2019-01-23T11:09:24.063Z,988.45
2019-01-23T11:10:24.021Z,988.48
2019-01-23T11:11:24.028Z,988.41
2019-01-23T11:12:23.991Z,988.38
2019-01-23T11:13:23.995Z,988.43
2019-01-23T11:14:23.967Z,988.40
2019-01-23T11:15:23.953Z,988.41
2019-01-23T11:16:23.938Z,988.40
2019-01-23T11:17:23.925Z,988.38
2019-01-23T11:18:23.916Z,988.41
2019-01-23T11:19:23.901Z,988.40
2019-01-23T11:20:23.889Z,988.41
2019-01-23T11:21:23.875Z,988.41
2019-01-23T11:22:23.860Z,988.35
2019-01-23T11:23:23.842Z,988.34
2019-01-23T11:24:23.837Z,988.30
2019-01-23T11:25:23.825Z,988.30
2019-01-23T11:26:23.820Z,988.33
2019-01-23T11:27:23.792Z,988.28
2019-01-23T11:28:23.784Z,988.27
2019-01-23T11:29:23.772Z,988.27
2019-01-23T11:30:23.758Z,988.29
2019-01-23T11:31:23.740Z,988.29
2019-01-23T11:32:23.733Z,988.30
2019-01-23T11:33:23.717Z,988.33
2019-01-23T11:34:23.707Z,988.30
2019-01-23T11:35:23.690Z,988.31
2019-01-23T11:36:23.680Z,988.30
2019-01-23T11:37:23.668Z,988.29
2019-01-23T11:38:23.659Z,988.29
2019-01-23T11:39:23.642Z,988.30
2019-01-23T11:40:23.625Z,988.30
2019-01-23T11:41:23.615Z,988.26
2019-01-23T11:42:23.598Z,988.26
2019-01-23T11:43:23.590Z,988.27
2019-01-23T11:44:23.574Z,988.28
2019-01-23T11:45:23.632Z,988.25
2019-01-23T11:46:23.548Z,988.25
2019-01-23T11:47:23.531Z,988.25
2019-01-23T11:48:23.528Z,988.24
2019-01-23T11:49:23.512Z,988.21
2019-01-23T11:50:23.498Z,988.24
2019-01-23T11:51:23.482Z,988.22
2019-01-23T11:52:23.471Z,988.26
2019-01-23T11:53:23.457Z,988.22
2019-01-23T11:54:23.439Z,988.28
2019-01-23T11:55:23.430Z,988.24
2019-01-23T11:56:23.419Z,988.26
2019-01-23T11:57:23.412Z,988.25
2019-01-23T11:58:23.389Z,988.24
2019-01-23T11:59:23.379Z,988.26
2019-01-23T12:00:23.368Z,988.23
2019-01-23T12:01:27.521Z,988.27
2019-01-23T12:02:23.340Z,988.25
2019-01-23T12:03:23.327Z,988.25
2019-01-23T12:04:23.313Z,988.27
2019-01-23T12:05:23.300Z,988.33
2019-01-23T12:06:23.284Z,988.31
2019-01-23T12:07:23.273Z,988.33
2019-01-23T12:08:23.255Z,988.31
2019-01-23T12:09:23.244Z,988.31
2019-01-23T12:10:23.234Z,988.30
2019-01-23T12:11:23.219Z,988.38
2019-01-23T12:12:23.209Z,988.38
2019-01-23T12:13:23.197Z,988.37
2019-01-23T12:14:23.180Z,988.38
2019-01-23T12:15:23.166Z,988.35
2019-01-23T12:16:23.159Z,988.40
2019-01-23T12:17:23.144Z,988.37
2019-01-23T12:18:23.136Z,988.36
2019-01-23T12:19:23.115Z,988.35
2019-01-23T12:20:23.107Z,988.37
2019-01-23T12:21:23.089Z,988.37
2019-01-23T12:22:23.080Z,988.37
2019-01-23T12:23:23.064Z,988.36
2019-01-23T12:24:23.048Z,988.33
2019-01-23T12:25:23.042Z,988.36
2019-01-23T12:26:23.024Z,988.32
2019-01-23T12:27:23.019Z,988.35
2019-01-23T12:28:22.997Z,988.37
2019-01-23T12:29:22.987Z,988.35
2019-01-23T12:30:22.974Z,988.34
2019-01-23T12:31:22.964Z,988.38
2019-01-23T12:32:22.949Z,988.38
2019-01-23T12:33:22.936Z,988.34
2019-01-23T12:34:22.921Z,988.44
2019-01-23T12:35:22.913Z,988.33
2019-01-23T12:36:22.897Z,988.33
2019-01-23T12:37:22.884Z,988.37
2019-01-23T12:38:22.873Z,988.42
2019-01-23T12:39:22.850Z,988.35
2019-01-23T12:40:22.841Z,988.39
2019-01-23T12:41:22.832Z,988.37
2019-01-23T12:42:22.818Z,988.39
2019-01-23T12:43:22.803Z,988.43
2019-01-23T12:44:22.787Z,988.36
2019-01-23T12:45:23.317Z,988.40
2019-01-23T12:46:22.782Z,988.39
2019-01-23T12:47:22.752Z,988.40
2019-01-23T12:48:22.734Z,988.36
2019-01-23T12:49:22.719Z,988.38
2019-01-23T12:50:23.319Z,988.38
2019-01-23T12:51:22.695Z,988.40
2019-01-23T12:52:22.685Z,988.34
2019-01-23T12:53:22.670Z,988.40
2019-01-23T12:54:22.660Z,988.41
2019-01-23T12:55:22.652Z,988.38
2019-01-23T12:56:22.631Z,988.39
2019-01-23T12:57:22.620Z,988.37
2019-01-23T12:58:22.607Z,988.41
2019-01-23T12:59:22.593Z,988.44
2019-01-23T13:00:22.577Z,988.45
2019-01-23T13:01:22.567Z,988.48
2019-01-23T13:02:22.552Z,988.46
2019-01-23T13:03:22.544Z,988.47
2019-01-23T13:04:22.522Z,988.46
2019-01-23T13:05:22.511Z,988.47
2019-01-23T13:06:22.494Z,988.50
2019-01-23T13:07:22.487Z,988.52
2019-01-23T13:08:22.469Z,988.50
2019-01-23T13:09:22.459Z,988.51
2019-01-23T13:10:22.442Z,988.52
2019-01-23T13:11:22.424Z,988.52
2019-01-23T13:12:22.417Z,988.52
2019-01-23T13:13:22.406Z,988.51
2019-01-23T13:14:22.389Z,988.50
2019-01-23T13:15:22.376Z,988.53
2019-01-23T13:16:22.365Z,988.52
2019-01-23T13:17:22.351Z,988.52
2019-01-23T13:18:22.337Z,988.51
2019-01-23T13:19:22.321Z,988.52
2019-01-23T13:20:22.310Z,988.47
2019-01-23T13:21:22.300Z,988.48
2019-01-23T13:22:22.284Z,988.47
2019-01-23T13:23:22.274Z,988.45